Time;durP1;ratioP1;P1;durP2;ratioP2;P2;SDS_P1;SDS_P2;PMS_P1;PMS_P2;Temp;Humidity;BMP_temperature;BMP_pressure;BME280_temperature;BME280_humidity;BME280_pressure;Samples;Min_cycle;Max_cycle;Signal;HPM_P1;HPM_P2
2023/04/01 00:00:52;;;;;;;;;;;;;;;-145.70;100.00;63560.63;6201142;23;19919;-61
2023/04/01 00:03:18;;;;;;;;;;;;;;;-145.70;100.00;63560.63;6203124;23;19915;-61
2023/04/01 00:05:43;;;;;;;;;;;;;;;-145.70;100.00;63560.63;6201563;23;20341;-60
2023/04/01 00:08:08;;;;;;;;;;;;;;;-145.70;100.00;63560.63;6204586;23;19916;-60
2023/04/01 00:10:33;;;;;;;;;;;;;;;-145.70;100.00;63560.63;6202270;23;19907;-60
2023/04/01 00:12:59;;;;;;;;;;;;;;;-145.70;100.00;63560.63;6201992;23;19939;-61
2023/04/01 00:15:24;;;;;;;;;;;;;;;-145.70;100.00;63560.63;6203695;23;19911;-61
2023/04/01 00:17:49;;;;;;;;;;;;;;;-145.70;100.00;63560.63;6203043;23;19994;-61
2023/04/01 00:20:15;;;;;;;;;;;;;;;-145.70;100.00;63560.63;6203365;23;19919;-61
2023/04/01 00:22:43;;;;;;;;;;;;;;;-145.70;100.00;63560.63;6200732;23;20424;-61
2023/04/01 00:25:08;;;;;;;;;;;;;;;-145.70;100.00;63560.63;6202883;23;20376;-61
2023/04/01 00:27:34;;;;;;;;;;;;;;;-145.70;100.00;63560.63;6201362;23;19912;-61
2023/04/01 00:29:59;;;;;;;;;;;;;;;-145.70;100.00;63560.63;6200850;23;20556;-61
2023/04/01 00:32:25;;;;;;;;;;;;;;;-145.70;100.00;63560.63;6201009;23;19923;-61
2023/04/01 00:34:53;;;;;;;;;;;;;;;-145.70;100.00;63560.63;6201464;23;20332;-61
2023/04/01 00:37:19;;;;;;;;;;;;;;;-145.70;100.00;63560.63;6203843;23;20005;-61
2023/04/01 00:39:44;;;;;;;;;;;;;;;-145.70;100.00;63560.63;6201730;23;19939;-64
2023/04/01 00:42:10;;;;;;;;;;;;;;;-145.70;100.00;63560.63;6204934;23;19919;-61
2023/04/01 00:44:41;;;;;;;;;;;;;;;-145.70;100.00;63560.63;6202549;23;19916;-61
2023/04/01 00:47:06;;;;;;;;;;;;;;;-145.70;100.00;63560.63;6204966;23;19926;-61
2023/04/01 00:49:33;;;;;;;;;;;;;;;-145.70;100.00;63560.63;6203801;23;19916;-61
2023/04/01 00:51:58;;;;;;;;;;;;;;;-145.70;100.00;63560.63;6205079;23;20002;-61
2023/04/01 00:54:24;;;;;;;;;;;;;;;-145.70;100.00;63560.63;6204291;23;19943;-61
2023/04/01 00:56:51;;;;;;;;;;;;;;;-145.70;100.00;63560.63;6204275;23;19912;-61
2023/04/01 00:59:19;;;;;;;;;;;;;;;-145.70;100.00;63560.63;6204213;23;19947;-61
2023/04/01 01:01:44;;;;;;;;;;;;;;;-145.70;100.00;63560.63;6203507;23;19915;-61
2023/04/01 01:04:29;;;;;;;;;;;;;;;-145.70;100.00;63560.63;6204613;23;19912;-61
2023/04/01 01:06:54;;;;;;;;;;;;;;;-145.70;100.00;63560.63;6204025;23;19955;-61
2023/04/01 01:09:28;;;;;;;;;;;;;;;-145.70;100.00;63560.63;6205666;23;19993;-61
2023/04/01 01:11:55;;;;;;;;;;;;;;;-145.70;100.00;63560.63;6204119;23;20304;-61
2023/04/01 01:14:21;;;;;;;;;;;;;;;-145.70;100.00;63560.63;6204161;23;19954;-61
2023/04/01 01:16:48;;;;;;;;;;;;;;;-145.70;100.00;63560.63;6207237;23;19933;-62
2023/04/01 01:19:13;;;;;;;;;;;;;;;-145.70;100.00;63560.63;6204116;23;19912;-61
2023/04/01 01:22:01;;;;;;;;;;;;;;;-145.70;100.00;63560.63;6207493;23;20348;-61
2023/04/01 01:24:35;;;;;;;;;;;;;;;-145.70;100.00;63560.63;6162996;23;19911;-61
2023/04/01 01:27:02;;;;;;;;;;;;;;;-145.70;100.00;63560.63;6204606;23;19912;-61
2023/04/01 01:29:31;;;;;;;;;;;;;;;-145.70;100.00;63560.63;6205676;23;20207;-61
2023/04/01 01:31:58;;;;;;;;;;;;;;;-145.70;100.00;63560.63;6203199;23;19958;-61
2023/04/01 01:34:33;;;;;;;;;;;;;;;-145.70;100.00;63560.63;6205185;23;20395;-61
2023/04/01 01:37:01;;;;;;;;;;;;;;;-145.70;100.00;63560.63;6206703;23;20383;-61
2023/04/01 01:39:30;;;;;;;;;;;;;;;-145.70;100.00;63560.63;6203284;23;20365;-61
2023/04/01 01:42:01;;;;;;;;;;;;;;;-145.70;100.00;63560.63;6204886;23;19911;-61
2023/04/01 01:44:27;;;;;;;;;;;;;;;-145.70;100.00;63560.63;6204325;23;20321;-61
2023/04/01 01:46:52;;;;;;;;;;;;;;;-145.70;100.00;63560.63;6204544;23;20007;-61
2023/04/01 01:49:18;;;;;;;;;;;;;;;-145.70;100.00;63560.63;6178661;23;19918;-61
2023/04/01 01:51:43;;;;;;;;;;;;;;;-145.70;100.00;63560.63;6204443;23;19912;-61
2023/04/01 01:54:15;;;;;;;;;;;;;;;-145.70;100.00;63560.63;6204266;23;19986;-61
2023/04/01 01:56:43;;;;;;;;;;;;;;;-145.70;100.00;63560.63;6202240;23;19915;-61
2023/04/01 01:59:11;;;;;;;;;;;;;;;-145.70;100.00;63560.63;6205160;23;20547;-60
2023/04/01 02:01:38;;;;;;;;;;;;;;;-145.70;100.00;63560.63;6203653;23;19911;-61
2023/04/01 02:04:03;;;;;;;;;;;;;;;-145.70;100.00;63560.63;6202443;23;19919;-61
2023/04/01 02:06:29;;;;;;;;;;;;;;;-145.70;100.00;63560.63;6204059;23;19912;-61
2023/04/01 02:08:54;;;;;;;;;;;;;;;-145.70;100.00;63560.63;6205618;23;19912;-60
2023/04/01 02:11:22;;;;;;;;;;;;;;;-145.70;100.00;63560.63;6203180;23;19911;-61
2023/04/01 02:14:08;;;;;;;;;;;;;;;-145.70;100.00;63560.63;6204432;23;19995;-60
2023/04/01 02:16:42;;;;;;;;;;;;;;;-145.70;100.00;63560.63;6205996;23;19955;-61
2023/04/01 02:19:10;;;;;;;;;;;;;;;-145.70;100.00;63560.63;6201302;23;19959;-61
2023/04/01 02:21:35;;;;;;;;;;;;;;;-145.70;100.00;63560.63;6204324;23;19959;-61
2023/04/01 02:24:01;;;;;;;;;;;;;;;-145.70;100.00;63560.63;6202378;23;20293;-61
2023/04/01 02:26:27;;;;;;;;;;;;;;;-145.70;100.00;63560.63;6204850;23;19912;-61
2023/04/01 02:28:55;;;;;;;;;;;;;;;-145.70;100.00;63560.63;6204865;23;19926;-61
2023/04/01 02:31:21;;;;;;;;;;;;;;;-145.70;100.00;63560.63;6202059;23;20280;-61
2023/04/01 02:33:46;;;;;;;;;;;;;;;-145.70;100.00;63560.63;6205431;23;19912;-61
2023/04/01 02:36:15;;;;;;;;;;;;;;;-145.70;100.00;63560.63;6203322;23;19908;-61
2023/04/01 02:38:41;;;;;;;;;;;;;;;-145.70;100.00;63560.63;6197144;23;20011;-61
2023/04/01 02:41:06;;;;;;;;;;;;;;;-145.70;100.00;63560.63;6173843;23;19912;-61
2023/04/01 02:43:32;;;;;;;;;;;;;;;-145.70;100.00;63560.63;6172197;23;19912;-61
2023/04/01 02:45:57;;;;;;;;;;;;;;;-145.70;100.00;63560.63;6175772;23;20259;-60
2023/04/01 02:48:22;;;;;;;;;;;;;;;-145.70;100.00;63560.63;6173996;23;20243;-61
2023/04/01 02:50:48;;;;;;;;;;;;;;;-145.70;100.00;63560.63;6173772;23;19912;-61
2023/04/01 02:53:13;;;;;;;;;;;;;;;-145.70;100.00;63560.63;6175078;23;20216;-61
2023/04/01 02:55:39;;;;;;;;;;;;;;;-145.70;100.00;63560.63;6174173;23;19911;-60
2023/04/01 02:58:04;;;;;;;;;;;;;;;-145.70;100.00;63560.63;6197197;23;20327;-60
2023/04/01 03:00:29;;;;;;;;;;;;;;;-145.70;100.00;63560.63;6174084;23;19912;-61
2023/04/01 03:02:56;;;;;;;;;;;;;;;-145.70;100.00;63560.63;6173638;23;19950;-60
2023/04/01 03:05:21;;;;;;;;;;;;;;;-145.70;100.00;63560.63;6173576;23;20225;-61
2023/04/01 03:07:46;;;;;;;;;;;;;;;-145.70;100.00;63560.63;6172916;23;19962;-60
2023/04/01 03:10:11;;;;;;;;;;;;;;;-145.70;100.00;63560.63;6196707;23;19915;-61
2023/04/01 03:12:37;;;;;;;;;;;;;;;-145.70;100.00;63560.63;6173370;23;19916;-62
2023/04/01 03:15:02;;;;;;;;;;;;;;;-145.70;100.00;63560.63;6171281;23;20317;-61
2023/04/01 03:17:28;;;;;;;;;;;;;;;-145.70;100.00;63560.63;6175077;23;20221;-61
2023/04/01 03:19:53;;;;;;;;;;;;;;;-145.70;100.00;63560.63;6171448;23;19952;-61
2023/04/01 03:22:20;;;;;;;;;;;;;;;-145.70;100.00;63560.63;6174760;23;20248;-61
2023/04/01 03:24:46;;;;;;;;;;;;;;;-145.70;100.00;63560.63;6172041;23;19912;-61
2023/04/01 03:27:14;;;;;;;;;;;;;;;-145.70;100.00;63560.63;6177419;23;19908;-61
2023/04/01 03:29:39;;;;;;;;;;;;;;;-145.70;100.00;63560.63;6171855;23;19908;-61
2023/04/01 03:32:04;;;;;;;;;;;;;;;-145.70;100.00;63560.63;6173641;23;20218;-61
2023/04/01 03:34:30;;;;;;;;;;;;;;;-145.70;100.00;63560.63;6174184;23;19969;-61
2023/04/01 03:36:55;;;;;;;;;;;;;;;-145.70;100.00;63560.63;6172624;23;19962;-61
2023/04/01 03:39:20;;;;;;;;;;;;;;;-145.70;100.00;63560.63;6175149;23;20406;-61
2023/04/01 03:41:46;;;;;;;;;;;;;;;-145.70;100.00;63560.63;6148871;23;19919;-61
2023/04/01 03:44:11;;;;;;;;;;;;;;;-145.70;100.00;63560.63;6149351;23;19912;-61
2023/04/01 03:46:37;;;;;;;;;;;;;;;-145.70;100.00;63560.63;6150477;23;20345;-61
2023/04/01 03:49:02;;;;;;;;;;;;;;;-145.70;100.00;63560.63;6145911;23;19916;-61
2023/04/01 03:51:27;;;;;;;;;;;;;;;-145.70;100.00;63560.63;6150898;23;19916;-61
2023/04/01 03:53:53;;;;;;;;;;;;;;;-145.70;100.00;63560.63;6149152;23;19939;-61
2023/04/01 03:56:18;;;;;;;;;;;;;;;-145.70;100.00;63560.63;6148918;23;19912;-61
2023/04/01 03:58:43;;;;;;;;;;;;;;;-145.70;100.00;63560.63;6174521;23;20210;-61
2023/04/01 04:01:20;;;;;;;;;;;;;;;-145.70;100.00;63560.63;6173321;23;20300;-62
2023/04/01 04:03:46;;;;;;;;;;;;;;;-145.70;100.00;63560.63;6150493;23;20394;-61
2023/04/01 04:06:12;;;;;;;;;;;;;;;-145.70;100.00;63560.63;6171672;23;19990;-61
2023/04/01 04:08:37;;;;;;;;;;;;;;;-145.70;100.00;63560.63;6149345;23;20356;-61
2023/04/01 04:11:02;;;;;;;;;;;;;;;-145.70;100.00;63560.63;6172163;23;20483;-61
2023/04/01 04:13:27;;;;;;;;;;;;;;;-145.70;100.00;63560.63;6148861;23;19934;-61
2023/04/01 04:15:53;;;;;;;;;;;;;;;-145.70;100.00;63560.63;6148358;23;19923;-61
2023/04/01 04:18:18;;;;;;;;;;;;;;;-145.70;100.00;63560.63;6148780;23;20302;-61
2023/04/01 04:20:45;;;;;;;;;;;;;;;-145.70;100.00;63560.63;6172872;23;19923;-61
2023/04/01 04:23:10;;;;;;;;;;;;;;;-145.70;100.00;63560.63;6146017;23;19947;-61
2023/04/01 04:25:36;;;;;;;;;;;;;;;-145.70;100.00;63560.63;6150010;23;19912;-61
2023/04/01 04:28:04;;;;;;;;;;;;;;;-145.70;100.00;63560.63;6172950;23;19956;-61
2023/04/01 04:30:30;;;;;;;;;;;;;;;-145.70;100.00;63560.63;6147951;23;19912;-61
2023/04/01 04:32:57;;;;;;;;;;;;;;;-145.70;100.00;63560.63;6148625;23;19912;-61
2023/04/01 04:35:23;;;;;;;;;;;;;;;-145.70;100.00;63560.63;6148651;23;19919;-61
2023/04/01 04:37:51;;;;;;;;;;;;;;;-145.70;100.00;63560.63;6150218;23;20070;-61
2023/04/01 04:40:16;;;;;;;;;;;;;;;-145.70;100.00;63560.63;6165404;23;20302;-61
2023/04/01 04:42:41;;;;;;;;;;;;;;;-145.70;100.00;63560.63;6174831;23;19959;-61
2023/04/01 04:45:06;;;;;;;;;;;;;;;-145.70;100.00;63560.63;6200819;23;19985;-61
2023/04/01 04:47:32;;;;;;;;;;;;;;;-145.70;100.00;63560.63;6204728;23;20380;-61
2023/04/01 04:49:57;;;;;;;;;;;;;;;-145.70;100.00;63560.63;6200720;23;19986;-61
2023/04/01 04:52:22;;;;;;;;;;;;;;;-145.70;100.00;63560.63;6201960;23;19915;-61
2023/04/01 04:54:47;;;;;;;;;;;;;;;-145.70;100.00;63560.63;6202944;23;19912;-61
2023/04/01 04:57:14;;;;;;;;;;;;;;;-145.70;100.00;63560.63;6203325;23;19915;-61
2023/04/01 04:59:39;;;;;;;;;;;;;;;-145.70;100.00;63560.63;6200878;23;19912;-62
2023/04/01 05:02:07;;;;;;;;;;;;;;;-145.70;100.00;63560.63;6203073;23;20253;-61
2023/04/01 05:04:36;;;;;;;;;;;;;;;-145.70;100.00;63560.63;6204883;23;19957;-61
2023/04/01 05:07:02;;;;;;;;;;;;;;;-145.70;100.00;63560.63;6202276;23;19919;-61
2023/04/01 05:09:27;;;;;;;;;;;;;;;-145.70;100.00;63560.63;6203633;23;20240;-61
2023/04/01 05:11:52;;;;;;;;;;;;;;;-145.70;100.00;63560.63;6202491;23;19919;-61
2023/04/01 05:14:17;;;;;;;;;;;;;;;-145.70;100.00;63560.63;6199902;23;19927;-61
2023/04/01 05:16:43;;;;;;;;;;;;;;;-145.70;100.00;63560.63;6203370;23;19919;-62
2023/04/01 05:19:08;;;;;;;;;;;;;;;-145.70;100.00;63560.63;6204172;23;20257;-62
2023/04/01 05:21:36;;;;;;;;;;;;;;;-145.70;100.00;63560.63;6204186;23;19989;-61
2023/04/01 05:24:07;;;;;;;;;;;;;;;-145.70;100.00;63560.63;6201551;23;19986;-64
2023/04/01 05:26:32;;;;;;;;;;;;;;;-145.70;100.00;63560.63;6204816;23;19918;-61
2023/04/01 05:28:57;;;;;;;;;;;;;;;-145.70;100.00;63560.63;6201531;23;20014;-61
2023/04/01 05:31:23;;;;;;;;;;;;;;;-145.70;100.00;63560.63;6207562;23;20337;-61
2023/04/01 05:33:49;;;;;;;;;;;;;;;-145.70;100.00;63560.63;6203398;23;19986;-61
2023/04/01 05:36:15;;;;;;;;;;;;;;;-145.70;100.00;63560.63;6205657;23;19938;-61
2023/04/01 05:38:42;;;;;;;;;;;;;;;-145.70;100.00;63560.63;6203528;23;19916;-62
2023/04/01 05:41:07;;;;;;;;;;;;;;;-145.70;100.00;63560.63;6181193;23;19930;-63
2023/04/01 05:43:35;;;;;;;;;;;;;;;-145.70;100.00;63560.63;6179030;23;20317;-61
2023/04/01 05:46:00;;;;;;;;;;;;;;;-145.70;100.00;63560.63;6204931;23;20019;-61
2023/04/01 05:48:25;;;;;;;;;;;;;;;-145.70;100.00;63560.63;6176665;23;19966;-61
2023/04/01 05:50:51;;;;;;;;;;;;;;;-145.70;100.00;63560.63;6174664;23;19912;-61
2023/04/01 05:53:16;;;;;;;;;;;;;;;-145.70;100.00;63560.63;6207280;23;20365;-61
2023/04/01 05:55:41;;;;;;;;;;;;;;;-145.70;100.00;63560.63;6202624;23;19923;-61
2023/04/01 05:58:09;;;;;;;;;;;;;;;-145.70;100.00;63560.63;6206006;23;19911;-61
2023/04/01 06:00:35;;;;;;;;;;;;;;;-145.70;100.00;63560.63;6203749;23;20403;-62
2023/04/01 06:03:00;;;;;;;;;;;;;;;-145.70;100.00;63560.63;6207537;23;19958;-61
2023/04/01 06:05:30;;;;;;;;;;;;;;;-145.70;100.00;63560.63;6205554;23;20245;-61
2023/04/01 06:08:00;;;;;;;;;;;;;;;-145.70;100.00;63560.63;6205631;23;20392;-61
2023/04/01 06:10:37;;;;;;;;;;;;;;;-145.70;100.00;63560.63;6200170;23;20031;-61
2023/04/01 06:13:10;;;;;;;;;;;;;;;-145.70;100.00;63560.63;6202272;23;19912;-61
2023/04/01 06:15:35;;;;;;;;;;;;;;;-145.70;100.00;63560.63;6203200;23;19912;-61
2023/04/01 06:18:23;;;;;;;;;;;;;;;-145.70;100.00;63560.63;6207374;23;20610;-61
2023/04/01 06:20:48;;;;;;;;;;;;;;;-145.70;100.00;63560.63;6203080;23;20407;-60
2023/04/01 06:23:34;;;;;;;;;;;;;;;-145.70;100.00;63560.63;6207834;23;19911;-61
2023/04/01 06:26:08;;;;;;;;;;;;;;;-145.70;100.00;63560.63;6160197;23;19912;-61
2023/04/01 06:28:56;;;;;;;;;;;;;;;-145.70;100.00;63560.63;6201250;23;19919;-61
2023/04/01 06:31:25;;;;;;;;;;;;;;;-145.70;100.00;63560.63;6162901;23;19912;-61
2023/04/01 06:34:09;;;;;;;;;;;;;;;-145.70;100.00;63560.63;6201250;23;19919;-61
2023/04/01 06:36:38;;;;;;;;;;;;;;;-145.70;100.00;63560.63;6207279;23;19911;-62
2023/04/01 06:39:06;;;;;;;;;;;;;;;-145.70;100.00;63560.63;6204503;23;19916;-61
2023/04/01 06:41:50;;;;;;;;;;;;;;;-145.70;100.00;63560.63;6206459;23;19992;-61
2023/04/01 06:44:19;;;;;;;;;;;;;;;-145.70;100.00;63560.63;6203052;23;20300;-61
2023/04/01 06:46:50;;;;;;;;;;;;;;;-145.70;100.00;63560.63;6203563;23;19994;-61
2023/04/01 06:49:31;;;;;;;;;;;;;;;-145.70;100.00;63560.63;6205330;23;19987;-60
2023/04/01 06:51:56;;;;;;;;;;;;;;;-145.70;100.00;63560.63;6205055;23;19994;-61
2023/04/01 06:54:24;;;;;;;;;;;;;;;-145.70;100.00;63560.63;6205301;23;19962;-61
2023/04/01 06:56:50;;;;;;;;;;;;;;;-145.70;100.00;63560.63;6204627;23;19934;-61
2023/04/01 06:59:17;;;;;;;;;;;;;;;-145.70;100.00;63560.63;6197669;23;19930;-63
2023/04/01 07:01:48;;;;;;;;;;;;;;;-145.70;100.00;63560.63;6176116;23;19987;-60
2023/04/01 07:04:19;;;;;;;;;;;;;;;-145.70;100.00;63560.63;6172566;23;19912;-61
2023/04/01 07:06:48;;;;;;;;;;;;;;;-145.70;100.00;63560.63;6200249;23;19912;-61
2023/04/01 07:09:19;;;;;;;;;;;;;;;-145.70;100.00;63560.63;6203626;23;19986;-62
2023/04/01 07:11:45;;;;;;;;;;;;;;;-145.70;100.00;63560.63;6203991;23;19962;-61
2023/04/01 07:14:18;;;;;;;;;;;;;;;-145.70;100.00;63560.63;6204236;23;19911;-61
2023/04/01 07:16:44;;;;;;;;;;;;;;;-145.70;100.00;63560.63;6196294;23;19919;-62
2023/04/01 07:19:10;;;;;;;;;;;;;;;-145.70;100.00;63560.63;6164290;23;20321;-61
2023/04/01 07:21:36;;;;;;;;;;;;;;;-145.70;100.00;63560.63;6198013;23;19942;-62
2023/04/01 07:24:06;;;;;;;;;;;;;;;-145.70;100.00;63560.63;6206306;23;19912;-61
2023/04/01 07:26:31;;;;;;;;;;;;;;;-145.70;100.00;63560.63;6198785;23;20288;-60
2023/04/01 07:28:56;;;;;;;;;;;;;;;-145.70;100.00;63560.63;6207114;23;19916;-59
2023/04/01 07:31:41;;;;;;;;;;;;;;;-145.70;100.00;63560.63;6200432;23;19954;-59
2023/04/01 07:34:06;;;;;;;;;;;;;;;-145.70;100.00;63560.63;6202372;23;19911;-59
2023/04/01 07:36:38;;;;;;;;;;;;;;;-145.70;100.00;63560.63;6206500;23;19957;-59
2023/04/01 07:39:14;;;;;;;;;;;;;;;-145.70;100.00;63560.63;6200336;23;19916;-59
2023/04/01 07:41:40;;;;;;;;;;;;;;;-145.70;100.00;63560.63;6205414;23;19919;-59
2023/04/01 07:44:11;;;;;;;;;;;;;;;-145.70;100.00;63560.63;6203030;23;20383;-60
2023/04/01 07:47:06;;;;;;;;;;;;;;;-145.70;100.00;63560.63;6203812;23;19935;-60
2023/04/01 07:49:41;;;;;;;;;;;;;;;-145.70;100.00;63560.63;6123936;23;20220;-59
2023/04/01 07:52:10;;;;;;;;;;;;;;;-145.70;100.00;63560.63;6198286;23;20011;-59
2023/04/01 07:54:45;;;;;;;;;;;;;;;-145.70;100.00;63560.63;6204128;23;19946;-63
2023/04/01 07:57:16;;;;;;;;;;;;;;;-145.70;100.00;63560.63;6198182;23;19919;-59
2023/04/01 07:59:41;;;;;;;;;;;;;;;-145.70;100.00;63560.63;6201556;23;19991;-59
2023/04/01 08:02:26;;;;;;;;;;;;;;;-145.70;100.00;63560.63;6199264;23;20069;-60
2023/04/01 08:04:57;;;;;;;;;;;;;;;-145.70;100.00;63560.63;6203396;23;19912;-59
2023/04/01 08:07:25;;;;;;;;;;;;;;;-145.70;100.00;63560.63;6202287;23;19912;-59
2023/04/01 08:10:03;;;;;;;;;;;;;;;-145.70;100.00;63560.63;6201726;23;19919;-59
2023/04/01 08:12:44;;;;;;;;;;;;;;;-145.70;100.00;63560.63;6206657;23;19916;-59
2023/04/01 08:15:12;;;;;;;;;;;;;;;-145.70;100.00;63560.63;6203903;23;19911;-59
2023/04/01 08:17:52;;;;;;;;;;;;;;;-145.70;100.00;63560.63;6189082;23;20177;-60
2023/04/01 08:20:24;;;;;;;;;;;;;;;-145.70;100.00;63560.63;6185377;23;20011;-60
2023/04/01 08:22:51;;;;;;;;;;;;;;;-145.70;100.00;63560.63;6192563;23;20329;-60
2023/04/01 08:25:21;;;;;;;;;;;;;;;-145.70;100.00;63560.63;6197207;23;19954;-60
2023/04/01 08:28:05;;;;;;;;;;;;;;;-145.70;100.00;63560.63;6196126;23;20373;-60
2023/04/01 08:30:36;;;;;;;;;;;;;;;-145.70;100.00;63560.63;6196889;23;20682;-60
2023/04/01 08:33:04;;;;;;;;;;;;;;;-145.70;100.00;63560.63;6193969;23;19946;-60
2023/04/01 08:35:40;;;;;;;;;;;;;;;-145.70;100.00;63560.63;6196633;23;19966;-61
2023/04/01 08:38:19;;;;;;;;;;;;;;;-145.70;100.00;63560.63;6196783;23;19912;-60
2023/04/01 08:40:58;;;;;;;;;;;;;;;-145.70;100.00;63560.63;6193120;23;20001;-60
2023/04/01 08:43:41;;;;;;;;;;;;;;;-145.70;100.00;63560.63;6194188;23;20205;-59
2023/04/01 08:46:07;;;;;;;;;;;;;;;-145.70;100.00;63560.63;6196790;23;19935;-60
2023/04/01 08:48:47;;;;;;;;;;;;;;;-145.70;100.00;63560.63;6194860;23;20221;-61
2023/04/01 08:51:31;;;;;;;;;;;;;;;-145.70;100.00;63560.63;6198644;23;19919;-60
2023/04/01 08:54:09;;;;;;;;;;;;;;;-145.70;100.00;63560.63;6198358;23;19947;-60
2023/04/01 08:56:35;;;;;;;;;;;;;;;-145.70;100.00;63560.63;6198049;23;20070;-60
2023/04/01 08:59:12;;;;;;;;;;;;;;;-145.70;100.00;63560.63;6199656;23;20595;-60
2023/04/01 09:01:56;;;;;;;;;;;;;;;-145.70;100.00;63560.63;6194681;23;19987;-60
2023/04/01 09:04:24;;;;;;;;;;;;;;;-145.70;100.00;63560.63;6199107;23;20570;-60
2023/04/01 09:06:55;;;;;;;;;;;;;;;-145.70;100.00;63560.63;6196046;23;19981;-60
2023/04/01 09:09:42;;;;;;;;;;;;;;;-145.70;100.00;63560.63;6201768;23;19907;-60
2023/04/01 09:12:07;;;;;;;;;;;;;;;-145.70;100.00;63560.63;6191270;23;19986;-60
2023/04/01 09:14:53;;;;;;;;;;;;;;;-145.70;100.00;63560.63;6200999;23;20712;-60
2023/04/01 09:17:28;;;;;;;;;;;;;;;-145.70;100.00;63560.63;6198755;23;19938;-60
2023/04/01 09:19:54;;;;;;;;;;;;;;;-145.70;100.00;63560.63;6195710;23;19911;-59
2023/04/01 09:22:48;;;;;;;;;;;;;;;-145.70;100.00;63560.63;6198260;23;19912;-60
2023/04/01 09:25:23;;;;;;;;;;;;;;;-145.70;100.00;63560.63;6178534;23;19931;-59
2023/04/01 09:27:51;;;;;;;;;;;;;;;-145.70;100.00;63560.63;6196144;23;20564;-60
2023/04/01 09:30:19;;;;;;;;;;;;;;;-145.70;100.00;63560.63;6198821;23;19918;-60
2023/04/01 09:33:01;;;;;;;;;;;;;;;-145.70;100.00;63560.63;6197595;23;19943;-60
2023/04/01 09:35:26;;;;;;;;;;;;;;;-145.70;100.00;63560.63;6198168;23;19919;-60
2023/04/01 09:38:01;;;;;;;;;;;;;;;-145.70;100.00;63560.63;6192781;23;19912;-61
2023/04/01 09:40:46;;;;;;;;;;;;;;;-145.70;100.00;63560.63;6195906;23;19922;-61
2023/04/01 09:43:13;;;;;;;;;;;;;;;-145.70;100.00;63560.63;6199438;23;19912;-61
2023/04/01 09:46:06;;;;;;;;;;;;;;;-145.70;100.00;63560.63;6192788;23;20027;-61
2023/04/01 09:48:47;;;;;;;;;;;;;;;-145.70;100.00;63560.63;6186168;23;19918;-61
2023/04/01 09:51:23;;;;;;;;;;;;;;;-145.70;100.00;63560.63;6199565;23;20344;-61
2023/04/01 09:54:05;;;;;;;;;;;;;;;-145.70;100.00;63560.63;6189848;23;20289;-61
2023/04/01 09:56:31;;;;;;;;;;;;;;;-145.70;100.00;63560.63;6198465;23;20244;-61
2023/04/01 09:59:05;;;;;;;;;;;;;;;-145.70;100.00;63560.63;6194949;23;19918;-59
2023/04/01 10:01:34;;;;;;;;;;;;;;;-145.70;100.00;63560.63;6198681;22;19920;-60
2023/04/01 10:04:02;;;;;;;;;;;;;;;-145.70;100.00;63560.63;6198249;23;19912;-60
2023/04/01 10:06:36;;;;;;;;;;;;;;;-145.70;100.00;63560.63;6194991;23;19958;-60
2023/04/01 10:09:11;;;;;;;;;;;;;;;-145.70;100.00;63560.63;6196663;23;19964;-60
2023/04/01 10:11:42;;;;;;;;;;;;;;;-145.70;100.00;63560.63;6196432;23;20004;-61
2023/04/01 10:14:17;;;;;;;;;;;;;;;-145.70;100.00;63560.63;6196270;23;20399;-61
2023/04/01 10:16:43;;;;;;;;;;;;;;;-145.70;100.00;63560.63;6196290;23;19912;-60
2023/04/01 10:19:11;;;;;;;;;;;;;;;-145.70;100.00;63560.63;6197625;23;20616;-60
2023/04/01 10:21:56;;;;;;;;;;;;;;;-145.70;100.00;63560.63;6197078;23;19939;-60
2023/04/01 10:24:40;;;;;;;;;;;;;;;-145.70;100.00;63560.63;6194723;23;20418;-60
2023/04/01 10:27:08;;;;;;;;;;;;;;;-145.70;100.00;63560.63;6197710;23;19915;-60
2023/04/01 10:29:41;;;;;;;;;;;;;;;-145.70;100.00;63560.63;6195100;23;19918;-60
2023/04/01 10:32:12;;;;;;;;;;;;;;;-145.70;100.00;63560.63;6195156;23;19908;-60
2023/04/01 10:34:50;;;;;;;;;;;;;;;-145.70;100.00;63560.63;6197475;23;20053;-60
2023/04/01 10:37:24;;;;;;;;;;;;;;;-145.70;100.00;63560.63;6195764;23;19923;-60
2023/04/01 10:39:58;;;;;;;;;;;;;;;-145.70;100.00;63560.63;6201080;23;20335;-60
2023/04/01 10:42:39;;;;;;;;;;;;;;;-145.70;100.00;63560.63;6199098;23;19912;-60
2023/04/01 10:45:07;;;;;;;;;;;;;;;-145.70;100.00;63560.63;6199661;23;19908;-60
2023/04/01 10:47:41;;;;;;;;;;;;;;;-145.70;100.00;63560.63;6199971;23;19970;-60
2023/04/01 10:50:12;;;;;;;;;;;;;;;-145.70;100.00;63560.63;6196484;23;19911;-61
2023/04/01 10:52:57;;;;;;;;;;;;;;;-145.70;100.00;63560.63;6197169;23;19919;-60
2023/04/01 10:55:41;;;;;;;;;;;;;;;-145.70;100.00;63560.63;6198754;23;19911;-60
2023/04/01 10:58:24;;;;;;;;;;;;;;;-145.70;100.00;63560.63;6196802;23;19908;-60
2023/04/01 11:00:55;;;;;;;;;;;;;;;-145.70;100.00;63560.63;6198437;23;19912;-61
2023/04/01 11:03:41;;;;;;;;;;;;;;;-145.70;100.00;63560.63;6198885;23;19912;-61
2023/04/01 11:06:18;;;;;;;;;;;;;;;-145.70;100.00;63560.63;6144154;23;19947;-60
2023/04/01 11:08:50;;;;;;;;;;;;;;;-145.70;100.00;63560.63;6198735;23;19916;-60
2023/04/01 11:11:34;;;;;;;;;;;;;;;-145.70;100.00;63560.63;6194994;23;19911;-60
2023/04/01 11:14:22;;;;;;;;;;;;;;;-145.70;100.00;63560.63;6198656;23;19911;-60
2023/04/01 11:16:54;;;;;;;;;;;;;;;-145.70;100.00;63560.63;6195748;23;19943;-60
2023/04/01 11:19:41;;;;;;;;;;;;;;;-145.70;100.00;63560.63;6195083;23;19911;-60
2023/04/01 11:22:19;;;;;;;;;;;;;;;-145.70;100.00;63560.63;6198048;23;19962;-60
2023/04/01 11:24:54;;;;;;;;;;;;;;;-145.70;100.00;63560.63;6194069;23;19907;-61
2023/04/01 11:27:24;;;;;;;;;;;;;;;-145.70;100.00;63560.63;6198390;23;19943;-60
2023/04/01 11:29:56;;;;;;;;;;;;;;;-145.70;100.00;63560.63;6202589;23;19908;-61
2023/04/01 11:32:22;;;;;;;;;;;;;;;-145.70;100.00;63560.63;6201655;23;19938;-60
2023/04/01 11:34:48;;;;;;;;;;;;;;;-145.70;100.00;63560.63;6205894;23;20325;-61
2023/04/01 11:37:19;;;;;;;;;;;;;;;-145.70;100.00;63560.63;6201305;23;20420;-61
2023/04/01 11:39:56;;;;;;;;;;;;;;;-145.70;100.00;63560.63;6204572;23;19971;-61
2023/04/01 11:42:40;;;;;;;;;;;;;;;-145.70;100.00;63560.63;6203376;23;19911;-60
2023/04/01 11:45:17;;;;;;;;;;;;;;;-145.70;100.00;63560.63;6205307;23;19912;-61
2023/04/01 11:47:51;;;;;;;;;;;;;;;-145.70;100.00;63560.63;6200659;23;19912;-61
2023/04/01 11:50:40;;;;;;;;;;;;;;;-145.70;100.00;63560.63;6202561;23;20307;-61
2023/04/01 11:53:12;;;;;;;;;;;;;;;-145.70;100.00;63560.63;6201670;23;19916;-60
2023/04/01 11:55:46;;;;;;;;;;;;;;;-145.70;100.00;63560.63;6201670;23;20423;-61
2023/04/01 11:58:28;;;;;;;;;;;;;;;-145.70;100.00;63560.63;6206604;23;19912;-60
2023/04/01 12:00:57;;;;;;;;;;;;;;;-145.70;100.00;63560.63;6202296;23;19966;-60
2023/04/01 12:03:42;;;;;;;;;;;;;;;-145.70;100.00;63560.63;6202074;23;20018;-60
2023/04/01 12:06:10;;;;;;;;;;;;;;;-145.70;100.00;63560.63;6202235;23;19954;-61
2023/04/01 12:08:45;;;;;;;;;;;;;;;-145.70;100.00;63560.63;6199843;23;19931;-60
2023/04/01 12:11:15;;;;;;;;;;;;;;;-145.70;100.00;63560.63;6202673;23;19915;-60
2023/04/01 12:13:44;;;;;;;;;;;;;;;-145.70;100.00;63560.63;6204021;23;19934;-60
2023/04/01 12:16:15;;;;;;;;;;;;;;;-145.70;100.00;63560.63;6202594;23;20218;-60
2023/04/01 12:18:59;;;;;;;;;;;;;;;-145.70;100.00;63560.63;6204925;23;19912;-60
2023/04/01 12:21:34;;;;;;;;;;;;;;;-145.70;100.00;63560.63;6201876;23;20428;-60
2023/04/01 12:24:03;;;;;;;;;;;;;;;-145.70;100.00;63560.63;6204013;23;19918;-60
2023/04/01 12:26:48;;;;;;;;;;;;;;;-145.70;100.00;63560.63;6201581;23;20025;-60
2023/04/01 12:29:16;;;;;;;;;;;;;;;-145.70;100.00;63560.63;6208148;23;19911;-60
2023/04/01 12:32:00;;;;;;;;;;;;;;;-145.70;100.00;63560.63;6206342;23;19912;-60
2023/04/01 12:34:39;;;;;;;;;;;;;;;-145.70;100.00;63560.63;6204318;23;20392;-60